createdAt,value
2023-05-21T00:00:17.172Z,538.00
2023-05-21T00:01:17.212Z,541.00
2023-05-21T00:02:17.241Z,540.00
2023-05-21T00:03:17.312Z,541.00
2023-05-21T00:04:17.287Z,539.00
2023-05-21T00:05:17.291Z,539.00
2023-05-21T00:06:17.392Z,536.00
2023-05-21T00:07:17.354Z,538.00
2023-05-21T00:08:17.389Z,539.00
2023-05-21T00:09:17.386Z,538.00
2023-05-21T00:10:17.402Z,539.00
2023-05-21T00:11:17.442Z,540.00
2023-05-21T00:12:17.482Z,538.00
2023-05-21T00:13:17.499Z,537.00
2023-05-21T00:14:17.532Z,538.00
2023-05-21T00:15:17.546Z,536.00
2023-05-21T00:16:17.646Z,538.00
2023-05-21T00:17:17.981Z,541.00
2023-05-21T00:18:18.000Z,541.00
2023-05-21T00:19:17.748Z,544.00
2023-05-21T00:20:17.797Z,543.00
2023-05-21T00:21:17.747Z,538.00
2023-05-21T00:22:17.815Z,540.00
2023-05-21T00:23:17.814Z,541.00
2023-05-21T00:24:17.828Z,537.00
2023-05-21T00:25:17.833Z,542.00
2023-05-21T00:26:17.896Z,540.00
2023-05-21T00:27:17.967Z,540.00
2023-05-21T00:28:17.968Z,541.00
2023-05-21T00:29:17.941Z,535.00
2023-05-21T00:30:17.982Z,540.00
2023-05-21T00:31:18.084Z,542.00
2023-05-21T00:32:18.068Z,538.00
2023-05-21T00:33:18.036Z,541.00
2023-05-21T00:34:18.104Z,539.00
2023-05-21T00:35:18.104Z,539.00
2023-05-21T00:36:18.160Z,538.00
2023-05-21T00:37:18.194Z,539.00
2023-05-21T00:38:18.220Z,538.00
2023-05-21T00:39:18.251Z,538.00
2023-05-21T00:40:18.280Z,539.00
2023-05-21T00:41:18.323Z,541.00
2023-05-21T00:42:18.368Z,537.00
2023-05-21T00:43:18.355Z,537.00
2023-05-21T00:44:18.380Z,540.00
2023-05-21T00:45:18.457Z,543.00
2023-05-21T00:46:18.518Z,540.00
2023-05-21T00:47:18.505Z,542.00
2023-05-21T00:48:18.510Z,540.00
2023-05-21T00:49:18.508Z,541.00
2023-05-21T00:50:18.565Z,541.00
2023-05-21T00:51:18.760Z,542.00
2023-05-21T00:52:18.620Z,546.00
2023-05-21T00:53:18.671Z,543.00
2023-05-21T00:54:18.693Z,547.00
2023-05-21T00:55:18.710Z,541.00
2023-05-21T00:56:18.740Z,541.00
2023-05-21T00:57:18.797Z,540.00
2023-05-21T00:58:18.826Z,542.00
2023-05-21T00:59:18.828Z,539.00
2023-05-21T01:00:18.875Z,538.00
2023-05-21T01:01:18.907Z,544.00
2023-05-21T01:02:18.967Z,540.00
2023-05-21T01:03:19.115Z,543.00
2023-05-21T01:04:18.998Z,545.00
2023-05-21T01:05:19.031Z,543.00
2023-05-21T01:06:19.062Z,541.00
2023-05-21T01:07:19.096Z,543.00
2023-05-21T01:08:19.151Z,542.00
2023-05-21T01:09:19.179Z,543.00
2023-05-21T01:10:19.230Z,541.00
2023-05-21T01:11:19.268Z,537.00
2023-05-21T01:12:19.294Z,541.00
2023-05-21T01:13:19.330Z,540.00
2023-05-21T01:14:19.360Z,542.00
2023-05-21T01:15:19.393Z,542.00
2023-05-21T01:16:19.442Z,545.00
2023-05-21T01:17:19.499Z,546.00
2023-05-21T01:18:19.583Z,542.00
2023-05-21T01:19:19.569Z,540.00
2023-05-21T01:20:19.608Z,539.00
2023-05-21T01:21:19.597Z,545.00
2023-05-21T01:22:19.657Z,541.00
2023-05-21T01:23:19.681Z,542.00
2023-05-21T01:24:19.719Z,546.00
2023-05-21T01:25:19.751Z,543.00
2023-05-21T01:26:19.791Z,542.00
2023-05-21T01:27:19.822Z,539.00
2023-05-21T01:28:19.904Z,544.00
2023-05-21T01:29:19.906Z,539.00
2023-05-21T01:30:19.951Z,541.00
2023-05-21T01:31:20.000Z,546.00
2023-05-21T01:32:20.018Z,539.00
2023-05-21T01:33:20.220Z,547.00
2023-05-21T01:34:20.132Z,541.00
2023-05-21T01:35:20.171Z,546.00
2023-05-21T01:36:20.175Z,543.00
2023-05-21T01:37:20.239Z,543.00
2023-05-21T01:38:20.293Z,546.00
2023-05-21T01:39:20.365Z,547.00
2023-05-21T01:40:20.398Z,543.00
2023-05-21T01:41:20.406Z,540.00
2023-05-21T01:42:20.454Z,543.00
2023-05-21T01:43:20.535Z,543.00
2023-05-21T01:44:20.554Z,539.00
2023-05-21T01:45:20.624Z,540.00
2023-05-21T01:46:20.715Z,547.00
2023-05-21T01:47:20.767Z,543.00
2023-05-21T01:48:20.753Z,544.00
2023-05-21T01:49:20.826Z,544.00
2023-05-21T01:50:20.917Z,545.00
2023-05-21T01:51:20.887Z,543.00
2023-05-21T01:52:20.951Z,543.00
2023-05-21T01:53:20.973Z,545.00
2023-05-21T01:54:21.002Z,542.00
2023-05-21T01:55:21.077Z,548.00
2023-05-21T01:56:21.093Z,545.00
2023-05-21T01:57:21.198Z,545.00
2023-05-21T01:58:21.201Z,546.00
2023-05-21T01:59:21.245Z,542.00
2023-05-21T02:00:21.322Z,548.00
2023-05-21T02:01:21.392Z,537.00
2023-05-21T02:02:21.397Z,546.00
2023-05-21T02:03:21.619Z,545.00
2023-05-21T02:04:21.514Z,543.00
2023-05-21T02:05:21.570Z,545.00
2023-05-21T02:06:21.608Z,545.00
2023-05-21T02:07:21.681Z,546.00
2023-05-21T02:08:21.700Z,545.00
2023-05-21T02:09:21.774Z,547.00
2023-05-21T02:10:21.812Z,543.00
2023-05-21T02:11:21.831Z,541.00
2023-05-21T02:12:21.887Z,548.00
2023-05-21T02:13:24.047Z,542.00
2023-05-21T02:14:21.971Z,553.00
2023-05-21T02:15:21.970Z,544.00
2023-05-21T02:16:21.992Z,549.00
2023-05-21T02:17:21.984Z,545.00
2023-05-21T02:18:21.920Z,546.00
2023-05-21T02:19:22.070Z,543.00
2023-05-21T02:20:21.908Z,544.00
2023-05-21T02:21:21.927Z,540.00
2023-05-21T02:22:21.877Z,548.00
2023-05-21T02:23:21.934Z,537.00
2023-05-21T02:24:21.891Z,544.00
2023-05-21T02:25:21.897Z,545.00
2023-05-21T02:26:21.852Z,540.00
2023-05-21T02:27:21.847Z,545.00
2023-05-21T02:28:21.868Z,551.00
2023-05-21T02:29:21.859Z,540.00
2023-05-21T02:30:21.873Z,542.00
2023-05-21T02:31:21.836Z,541.00
2023-05-21T02:32:21.899Z,542.00
2023-05-21T02:33:21.810Z,540.00
2023-05-21T02:34:21.836Z,542.00
2023-05-21T02:35:21.808Z,540.00
2023-05-21T02:36:21.810Z,546.00
2023-05-21T02:37:21.800Z,543.00
2023-05-21T02:38:21.800Z,542.00
2023-05-21T02:39:21.826Z,544.00
2023-05-21T02:40:21.837Z,543.00
2023-05-21T02:41:21.917Z,544.00
2023-05-21T02:42:21.967Z,542.00
2023-05-21T02:43:22.026Z,541.00
2023-05-21T02:44:22.073Z,543.00
2023-05-21T02:45:22.137Z,541.00
2023-05-21T02:46:22.345Z,544.00
2023-05-21T02:47:22.302Z,541.00
2023-05-21T02:48:22.283Z,542.00
2023-05-21T02:49:22.385Z,538.00
2023-05-21T02:50:22.417Z,540.00
2023-05-21T02:51:22.500Z,538.00
2023-05-21T02:52:22.515Z,543.00
2023-05-21T02:53:22.599Z,543.00
2023-05-21T02:54:22.608Z,538.00
2023-05-21T02:55:22.658Z,539.00
2023-05-21T02:56:22.736Z,533.00
2023-05-21T02:57:22.842Z,539.00
2023-05-21T02:58:22.855Z,537.00
2023-05-21T02:59:22.900Z,539.00
2023-05-21T03:00:22.949Z,538.00
2023-05-21T03:01:23.098Z,541.00
2023-05-21T03:02:23.230Z,537.00
2023-05-21T03:03:23.277Z,543.00
2023-05-21T03:04:23.206Z,543.00
2023-05-21T03:05:23.246Z,543.00
2023-05-21T03:06:23.305Z,543.00
2023-05-21T03:07:23.343Z,544.00
2023-05-21T03:08:23.407Z,541.00
2023-05-21T03:09:23.464Z,540.00
2023-05-21T03:10:23.539Z,541.00
2023-05-21T03:11:23.581Z,535.00
2023-05-21T03:12:23.708Z,539.00
2023-05-21T03:13:23.817Z,542.00
2023-05-21T03:14:23.812Z,541.00
2023-05-21T03:15:23.826Z,543.00
2023-05-21T03:16:23.947Z,535.00
2023-05-21T03:17:24.048Z,539.00
2023-05-21T03:18:24.025Z,534.00
2023-05-21T03:19:24.146Z,539.00
2023-05-21T03:20:24.122Z,541.00
2023-05-21T03:21:24.160Z,535.00
2023-05-21T03:22:24.285Z,538.00
2023-05-21T03:23:24.354Z,540.00
2023-05-21T03:24:24.411Z,539.00
2023-05-21T03:25:24.397Z,542.00
2023-05-21T03:26:24.544Z,537.00
2023-05-21T03:27:24.564Z,540.00
2023-05-21T03:28:24.616Z,537.00
2023-05-21T03:29:24.698Z,539.00
2023-05-21T03:30:24.711Z,535.00
2023-05-21T03:31:24.843Z,538.00
2023-05-21T03:32:24.911Z,537.00
2023-05-21T03:33:24.906Z,535.00
2023-05-21T03:34:24.968Z,540.00
2023-05-21T03:35:25.060Z,540.00
2023-05-21T03:36:25.102Z,541.00
2023-05-21T03:37:25.187Z,540.00
2023-05-21T03:38:25.199Z,539.00
2023-05-21T03:39:25.276Z,542.00
2023-05-21T03:40:25.339Z,533.00
2023-05-21T03:41:25.395Z,537.00
2023-05-21T03:42:25.514Z,537.00
2023-05-21T03:43:25.570Z,537.00
2023-05-21T03:44:25.561Z,541.00
2023-05-21T03:45:25.662Z,541.00
2023-05-21T03:46:25.689Z,533.00
2023-05-21T03:47:25.792Z,539.00
2023-05-21T03:48:25.855Z,537.00
2023-05-21T03:49:25.904Z,539.00
2023-05-21T03:50:25.912Z,535.00
2023-05-21T03:51:25.995Z,532.00
2023-05-21T03:52:26.079Z,534.00
2023-05-21T03:53:26.147Z,539.00
2023-05-21T03:54:26.212Z,539.00
2023-05-21T03:55:26.251Z,540.00
2023-05-21T03:56:26.350Z,539.00
2023-05-21T03:57:26.344Z,540.00
2023-05-21T03:58:26.389Z,536.00
2023-05-21T03:59:26.489Z,535.00
2023-05-21T04:00:26.517Z,540.00
2023-05-21T04:01:26.600Z,530.00
2023-05-21T04:02:26.678Z,540.00
2023-05-21T04:03:26.899Z,538.00
2023-05-21T04:04:26.763Z,540.00
2023-05-21T04:05:26.833Z,537.00
2023-05-21T04:06:26.898Z,535.00
2023-05-21T04:07:26.951Z,537.00
2023-05-21T04:08:27.014Z,537.00
2023-05-21T04:09:27.086Z,536.00
2023-05-21T04:10:27.118Z,535.00
2023-05-21T04:11:27.174Z,528.00
2023-05-21T04:12:27.278Z,534.00
2023-05-21T04:13:27.274Z,542.00
2023-05-21T04:14:27.726Z,536.00
2023-05-21T04:15:27.434Z,536.00
2023-05-21T04:16:27.536Z,538.00
2023-05-21T04:17:27.619Z,538.00
2023-05-21T04:18:27.611Z,536.00
2023-05-21T04:19:27.732Z,536.00
2023-05-21T04:20:27.706Z,534.00
2023-05-21T04:21:27.740Z,531.00
2023-05-21T04:22:27.821Z,537.00
2023-05-21T04:23:27.868Z,536.00
2023-05-21T04:24:27.958Z,532.00
2023-05-21T04:25:27.986Z,534.00
2023-05-21T04:26:28.070Z,538.00
2023-05-21T04:27:28.103Z,536.00
2023-05-21T04:28:28.175Z,534.00
2023-05-21T04:29:28.226Z,534.00
2023-05-21T04:30:28.292Z,533.00
2023-05-21T04:31:28.419Z,528.00
2023-05-21T04:32:28.446Z,535.00
2023-05-21T04:33:28.441Z,534.00
2023-05-21T04:34:28.522Z,531.00
2023-05-21T04:35:28.565Z,538.00
2023-05-21T04:36:28.638Z,535.00
2023-05-21T04:37:28.688Z,532.00
2023-05-21T04:38:28.758Z,530.00
2023-05-21T04:39:28.780Z,531.00
2023-05-21T04:40:28.872Z,531.00
2023-05-21T04:41:28.936Z,536.00
2023-05-21T04:42:28.989Z,533.00
2023-05-21T04:43:29.092Z,534.00
2023-05-21T04:44:29.104Z,529.00
2023-05-21T04:45:29.135Z,533.00
2023-05-21T04:46:29.252Z,535.00
2023-05-21T04:47:29.247Z,531.00
2023-05-21T04:48:29.279Z,534.00
2023-05-21T04:49:29.351Z,534.00
2023-05-21T04:50:29.392Z,530.00
2023-05-21T04:51:29.546Z,531.00
2023-05-21T04:52:29.566Z,533.00
2023-05-21T04:53:29.638Z,531.00
2023-05-21T04:54:29.670Z,529.00
2023-05-21T04:55:29.748Z,533.00
2023-05-21T04:56:29.795Z,536.00
2023-05-21T04:57:29.837Z,533.00
2023-05-21T04:58:29.919Z,528.00
2023-05-21T04:59:29.978Z,535.00
2023-05-21T05:00:30.047Z,535.00
2023-05-21T05:01:30.094Z,537.00
2023-05-21T05:02:30.172Z,530.00
2023-05-21T05:03:30.199Z,531.00
2023-05-21T05:04:30.278Z,529.00
2023-05-21T05:05:30.350Z,534.00
2023-05-21T05:06:30.367Z,532.00
2023-05-21T05:07:30.501Z,535.00
2023-05-21T05:08:30.465Z,534.00
2023-05-21T05:09:30.560Z,537.00
2023-05-21T05:10:30.627Z,531.00
2023-05-21T05:11:30.643Z,533.00
2023-05-21T05:12:30.729Z,534.00
2023-05-21T05:13:30.785Z,537.00
2023-05-21T05:14:30.837Z,529.00
2023-05-21T05:15:30.908Z,533.00
2023-05-21T05:16:31.006Z,533.00
2023-05-21T05:17:31.007Z,536.00
2023-05-21T05:18:31.102Z,532.00
2023-05-21T05:19:31.127Z,533.00
2023-05-21T05:20:31.128Z,538.00
2023-05-21T05:21:31.251Z,532.00
2023-05-21T05:22:31.236Z,536.00
2023-05-21T05:23:31.290Z,537.00
2023-05-21T05:24:31.358Z,535.00
2023-05-21T05:25:31.369Z,531.00
2023-05-21T05:26:31.435Z,536.00
2023-05-21T05:27:31.578Z,537.00
2023-05-21T05:28:31.592Z,535.00
2023-05-21T05:29:31.554Z,537.00
2023-05-21T05:30:31.618Z,534.00
2023-05-21T05:31:31.732Z,538.00
2023-05-21T05:32:31.773Z,539.00
2023-05-21T05:33:31.797Z,537.00
2023-05-21T05:34:31.808Z,538.00
2023-05-21T05:35:31.851Z,535.00
2023-05-21T05:36:31.860Z,533.00
2023-05-21T05:37:31.918Z,534.00
2023-05-21T05:38:31.952Z,530.00
2023-05-21T05:39:32.037Z,532.00
2023-05-21T05:40:32.100Z,532.00
2023-05-21T05:41:32.148Z,535.00
2023-05-21T05:42:32.165Z,535.00
2023-05-21T05:43:32.229Z,531.00
2023-05-21T05:44:32.236Z,535.00
2023-05-21T05:45:32.320Z,536.00
2023-05-21T05:46:32.370Z,535.00
2023-05-21T05:47:32.372Z,534.00
2023-05-21T05:48:32.433Z,537.00
2023-05-21T05:49:32.483Z,532.00
2023-05-21T05:50:32.518Z,535.00
2023-05-21T05:51:32.582Z,531.00
2023-05-21T05:52:32.639Z,538.00
2023-05-21T05:53:32.638Z,531.00
2023-05-21T05:54:32.714Z,536.00
2023-05-21T05:55:32.765Z,531.00
2023-05-21T05:56:32.809Z,535.00
2023-05-21T05:57:32.803Z,534.00
2023-05-21T05:58:32.902Z,532.00
2023-05-21T05:59:32.922Z,538.00
2023-05-21T06:00:32.922Z,534.00
2023-05-21T06:01:33.015Z,534.00
2023-05-21T06:02:33.217Z,534.00
2023-05-21T06:03:33.195Z,533.00
2023-05-21T06:04:33.097Z,536.00
2023-05-21T06:05:33.201Z,531.00
2023-05-21T06:06:33.168Z,536.00
2023-05-21T06:07:33.198Z,536.00
2023-05-21T06:08:33.285Z,532.00
2023-05-21T06:09:33.294Z,533.00
2023-05-21T06:10:33.309Z,529.00
2023-05-21T06:11:33.398Z,533.00
2023-05-21T06:12:33.420Z,531.00
2023-05-21T06:13:33.495Z,533.00
2023-05-21T06:14:33.503Z,534.00
2023-05-21T06:15:33.561Z,540.00
2023-05-21T06:16:33.654Z,536.00
2023-05-21T06:17:33.637Z,535.00
2023-05-21T06:18:33.675Z,530.00
2023-05-21T06:19:33.793Z,537.00
2023-05-21T06:20:33.745Z,529.00
2023-05-21T06:21:33.757Z,537.00
2023-05-21T06:22:33.798Z,533.00
2023-05-21T06:23:33.868Z,532.00
2023-05-21T06:24:33.873Z,534.00
2023-05-21T06:25:33.956Z,532.00
2023-05-21T06:26:33.928Z,533.00
2023-05-21T06:27:33.943Z,526.00
2023-05-21T06:28:33.960Z,530.00
2023-05-21T06:29:34.016Z,529.00
2023-05-21T06:30:34.013Z,533.00
2023-05-21T06:31:34.084Z,529.00
2023-05-21T06:32:34.233Z,534.00
2023-05-21T06:33:34.197Z,531.00
2023-05-21T06:34:34.160Z,530.00
2023-05-21T06:35:34.230Z,528.00
2023-05-21T06:36:34.200Z,528.00
2023-05-21T06:37:34.198Z,533.00
2023-05-21T06:38:34.419Z,531.00
2023-05-21T06:39:34.824Z,529.00
2023-05-21T06:40:34.300Z,528.00
2023-05-21T06:41:34.302Z,531.00
2023-05-21T06:42:34.283Z,528.00
2023-05-21T06:43:34.313Z,528.00
2023-05-21T06:44:34.340Z,533.00
2023-05-21T06:45:34.420Z,533.00
2023-05-21T06:46:34.414Z,531.00
2023-05-21T06:47:34.427Z,531.00
2023-05-21T06:48:34.445Z,529.00
2023-05-21T06:49:34.446Z,533.00
2023-05-21T06:50:34.468Z,526.00
2023-05-21T06:51:34.472Z,531.00
2023-05-21T06:52:34.521Z,536.00
2023-05-21T06:53:34.536Z,532.00
2023-05-21T06:54:34.594Z,532.00
2023-05-21T06:55:34.749Z,528.00
2023-05-21T06:56:34.607Z,529.00
2023-05-21T06:57:34.642Z,532.00
2023-05-21T06:58:34.714Z,534.00
2023-05-21T06:59:34.718Z,530.00
2023-05-21T07:00:34.762Z,529.00
2023-05-21T07:01:34.792Z,529.00
2023-05-21T07:02:34.962Z,532.00
2023-05-21T07:03:34.845Z,533.00
2023-05-21T07:04:34.813Z,526.00
2023-05-21T07:05:35.180Z,530.00
2023-05-21T07:06:34.824Z,529.00
2023-05-21T07:07:34.924Z,529.00
2023-05-21T07:08:34.824Z,530.00
2023-05-21T07:09:34.885Z,526.00
2023-05-21T07:10:34.870Z,531.00
2023-05-21T07:11:34.945Z,527.00
2023-05-21T07:12:34.917Z,529.00
2023-05-21T07:13:34.953Z,532.00
2023-05-21T07:14:34.949Z,531.00
2023-05-21T07:15:35.221Z,525.00
2023-05-21T07:16:34.963Z,526.00
2023-05-21T07:17:35.059Z,529.00
2023-05-21T07:18:34.967Z,525.00
2023-05-21T07:19:34.973Z,531.00
2023-05-21T07:20:35.007Z,531.00
2023-05-21T07:21:35.089Z,526.00
2023-05-21T07:22:35.142Z,529.00
2023-05-21T07:23:35.229Z,524.00
2023-05-21T07:24:35.308Z,528.00
2023-05-21T07:25:35.654Z,524.00
2023-05-21T07:26:35.524Z,524.00
2023-05-21T07:27:35.564Z,524.00
2023-05-21T07:28:35.657Z,521.00
2023-05-21T07:29:35.658Z,526.00
2023-05-21T07:30:35.594Z,526.00
2023-05-21T07:31:35.703Z,524.00
2023-05-21T07:32:35.847Z,521.00
2023-05-21T07:33:36.091Z,524.00
2023-05-21T07:34:35.782Z,524.00
2023-05-21T07:35:36.053Z,523.00
2023-05-21T07:36:35.803Z,524.00
2023-05-21T07:37:35.840Z,527.00
2023-05-21T07:38:35.848Z,526.00
2023-05-21T07:39:35.868Z,525.00
2023-05-21T07:40:35.889Z,530.00
2023-05-21T07:41:35.940Z,526.00
2023-05-21T07:42:35.944Z,528.00
2023-05-21T07:43:35.903Z,526.00
2023-05-21T07:44:35.956Z,524.00
2023-05-21T07:45:36.274Z,526.00
2023-05-21T07:46:36.033Z,524.00
2023-05-21T07:47:36.051Z,526.00
2023-05-21T07:48:35.952Z,523.00
2023-05-21T07:49:35.904Z,524.00
2023-05-21T07:50:35.939Z,530.00
2023-05-21T07:51:35.952Z,522.00
2023-05-21T07:52:35.973Z,525.00
2023-05-21T07:53:35.975Z,522.00
2023-05-21T07:54:36.007Z,525.00
2023-05-21T07:55:36.220Z,526.00
2023-05-21T07:56:36.048Z,527.00
2023-05-21T07:57:36.096Z,526.00
2023-05-21T07:58:36.308Z,525.00
2023-05-21T07:59:36.054Z,527.00
2023-05-21T08:00:36.556Z,524.00
2023-05-21T08:01:36.166Z,527.00
2023-05-21T08:02:36.245Z,529.00
2023-05-21T08:03:36.303Z,539.00
2023-05-21T08:04:38.534Z,535.00
2023-05-21T08:05:36.349Z,541.00
2023-05-21T08:06:36.215Z,537.00
2023-05-21T08:07:36.162Z,531.00
2023-05-21T08:08:36.161Z,538.00
2023-05-21T08:09:36.187Z,542.00
2023-05-21T08:10:36.184Z,536.00
2023-05-21T08:11:36.149Z,539.00
2023-05-21T08:12:36.144Z,537.00
2023-05-21T08:13:36.158Z,535.00
2023-05-21T08:14:36.180Z,537.00
2023-05-21T08:15:36.351Z,531.00
2023-05-21T08:16:36.226Z,528.00
2023-05-21T08:17:36.190Z,528.00
2023-05-21T08:18:36.105Z,532.00
2023-05-21T08:19:36.172Z,540.00
2023-05-21T08:20:36.100Z,535.00
2023-05-21T08:21:36.059Z,531.00
2023-05-21T08:22:36.154Z,529.00
2023-05-21T08:23:36.082Z,530.00
2023-05-21T08:24:36.085Z,532.00
2023-05-21T08:25:36.373Z,536.00
2023-05-21T08:26:36.084Z,529.00
2023-05-21T08:27:36.050Z,527.00
2023-05-21T08:28:36.063Z,528.00
2023-05-21T08:29:36.061Z,530.00
2023-05-21T08:30:36.073Z,528.00
2023-05-21T08:31:36.092Z,537.00
2023-05-21T08:32:36.039Z,535.00
2023-05-21T08:33:36.018Z,531.00
2023-05-21T08:34:36.033Z,531.00
2023-05-21T08:35:36.160Z,532.00
2023-05-21T08:36:36.018Z,527.00
2023-05-21T08:37:36.131Z,527.00
2023-05-21T08:38:36.166Z,527.00
2023-05-21T08:39:36.335Z,540.00
2023-05-21T08:40:36.248Z,540.00
2023-05-21T08:41:36.279Z,533.00
2023-05-21T08:42:37.620Z,530.00
2023-05-21T08:43:36.478Z,531.00
2023-05-21T08:44:36.886Z,529.00
2023-05-21T08:45:36.798Z,533.00
2023-05-21T08:46:36.598Z,535.00
2023-05-21T08:47:36.683Z,530.00
2023-05-21T08:48:36.745Z,530.00
2023-05-21T08:49:36.833Z,529.00
2023-05-21T08:50:36.867Z,530.00
2023-05-21T08:51:36.872Z,528.00
2023-05-21T08:52:36.979Z,528.00
2023-05-21T08:53:37.049Z,529.00
2023-05-21T08:54:37.093Z,528.00
2023-05-21T08:55:37.395Z,530.00
2023-05-21T08:56:37.219Z,528.00
2023-05-21T08:57:37.279Z,528.00
2023-05-21T08:58:37.322Z,527.00
2023-05-21T08:59:37.398Z,528.00
2023-05-21T09:00:37.438Z,526.00
2023-05-21T09:01:37.530Z,529.00
2023-05-21T09:02:37.579Z,530.00
2023-05-21T09:03:37.740Z,526.00
2023-05-21T09:04:37.767Z,526.00
2023-05-21T09:05:37.924Z,525.00
2023-05-21T09:06:37.812Z,527.00
2023-05-21T09:07:37.846Z,524.00
2023-05-21T09:08:38.004Z,529.00
2023-05-21T09:09:37.997Z,527.00
2023-05-21T09:10:38.086Z,523.00
2023-05-21T09:11:38.130Z,526.00
2023-05-21T09:12:38.142Z,528.00
2023-05-21T09:13:38.949Z,524.00
2023-05-21T09:14:38.278Z,525.00
2023-05-21T09:15:38.459Z,526.00
2023-05-21T09:16:38.411Z,526.00
2023-05-21T09:17:38.520Z,527.00
2023-05-21T09:18:38.482Z,525.00
2023-05-21T09:19:38.684Z,524.00
2023-05-21T09:20:38.668Z,524.00
2023-05-21T09:21:38.709Z,527.00
2023-05-21T09:22:38.765Z,526.00
2023-05-21T09:23:38.791Z,529.00
2023-05-21T09:24:38.901Z,527.00
2023-05-21T09:25:39.135Z,528.00
2023-05-21T09:26:39.016Z,527.00
2023-05-21T09:27:39.027Z,527.00
2023-05-21T09:28:39.059Z,528.00
2023-05-21T09:29:39.129Z,529.00
2023-05-21T09:30:39.400Z,525.00
2023-05-21T09:31:39.327Z,526.00
2023-05-21T09:32:39.339Z,527.00
2023-05-21T09:33:39.365Z,525.00
2023-05-21T09:34:39.445Z,525.00
2023-05-21T09:35:39.427Z,523.00
2023-05-21T09:36:39.492Z,521.00
2023-05-21T09:37:39.634Z,524.00
2023-05-21T09:38:39.586Z,523.00
2023-05-21T09:39:39.667Z,524.00
2023-05-21T09:40:39.719Z,523.00
2023-05-21T09:41:39.757Z,523.00
2023-05-21T09:42:39.845Z,523.00
2023-05-21T09:43:39.895Z,521.00
2023-05-21T09:44:39.957Z,521.00
2023-05-21T09:45:39.953Z,522.00
2023-05-21T09:46:40.021Z,522.00
2023-05-21T09:47:40.172Z,520.00
2023-05-21T09:48:40.125Z,521.00
2023-05-21T09:49:40.132Z,522.00
2023-05-21T09:50:40.211Z,523.00
2023-05-21T09:51:40.267Z,523.00
2023-05-21T09:52:41.997Z,522.00
2023-05-21T09:53:40.380Z,523.00
2023-05-21T09:54:40.362Z,522.00
2023-05-21T09:55:40.440Z,523.00
2023-05-21T09:56:40.485Z,522.00
2023-05-21T09:57:40.484Z,520.00
2023-05-21T09:58:40.565Z,518.00
2023-05-21T09:59:40.674Z,521.00
2023-05-21T10:00:40.640Z,521.00
2023-05-21T10:01:40.759Z,519.00
2023-05-21T10:02:40.783Z,520.00
2023-05-21T10:03:40.800Z,522.00
2023-05-21T10:04:40.849Z,519.00
2023-05-21T10:05:40.859Z,520.00
2023-05-21T10:06:40.913Z,521.00
2023-05-21T10:07:41.045Z,519.00
2023-05-21T10:08:40.982Z,523.00
2023-05-21T10:09:41.059Z,522.00
2023-05-21T10:10:41.085Z,524.00
2023-05-21T10:11:41.102Z,520.00
2023-05-21T10:12:41.172Z,523.00
2023-05-21T10:13:41.233Z,523.00
2023-05-21T10:14:41.230Z,520.00
2023-05-21T10:17:00.058Z,500.00
2023-05-21T10:18:00.029Z,500.00
2023-05-21T10:18:59.959Z,500.00
2023-05-21T10:20:00.005Z,500.00
2023-05-21T10:21:00.112Z,500.00
2023-05-21T10:21:59.978Z,501.00
2023-05-21T10:22:59.974Z,500.00
2023-05-21T10:23:59.946Z,503.00
2023-05-21T10:24:59.934Z,501.00
2023-05-21T10:25:59.991Z,500.00
2023-05-21T10:26:59.931Z,500.00
2023-05-21T10:27:59.923Z,500.00
2023-05-21T10:28:59.907Z,501.00
2023-05-21T10:29:59.872Z,504.00
2023-05-21T10:30:59.851Z,503.00
2023-05-21T10:31:59.887Z,503.00
2023-05-21T10:33:00.377Z,503.00
2023-05-21T10:33:59.852Z,501.00
2023-05-21T10:35:01.508Z,502.00
2023-05-21T10:35:59.862Z,505.00
2023-05-21T10:36:59.859Z,505.00
2023-05-21T10:37:59.878Z,503.00
2023-05-21T10:38:59.910Z,504.00
2023-05-21T10:39:59.826Z,505.00
2023-05-21T10:40:59.805Z,503.00
2023-05-21T10:41:59.796Z,504.00
2023-05-21T10:42:59.878Z,507.00
2023-05-21T10:43:59.818Z,504.00
2023-05-21T10:44:59.963Z,505.00
2023-05-21T10:45:59.964Z,504.00
2023-05-21T10:46:59.943Z,502.00
2023-05-21T10:48:00.032Z,501.00
2023-05-21T10:49:00.065Z,505.00
2023-05-21T10:50:00.076Z,504.00
2023-05-21T10:51:00.123Z,503.00
2023-05-21T10:52:00.170Z,503.00
2023-05-21T10:53:00.678Z,503.00
2023-05-21T10:54:00.195Z,503.00
2023-05-21T10:55:00.240Z,502.00
2023-05-21T10:56:00.253Z,506.00
2023-05-21T10:57:00.265Z,502.00
2023-05-21T10:58:00.329Z,502.00
2023-05-21T10:59:00.474Z,502.00
2023-05-21T11:00:00.377Z,504.00
2023-05-21T11:01:00.395Z,506.00
2023-05-21T11:02:00.567Z,505.00
2023-05-21T11:03:00.573Z,504.00
2023-05-21T11:04:00.560Z,506.00
2023-05-21T11:05:00.607Z,506.00
2023-05-21T11:06:00.523Z,503.00
2023-05-21T11:07:00.614Z,505.00
2023-05-21T11:08:00.603Z,505.00
2023-05-21T11:09:00.637Z,507.00
2023-05-21T11:10:00.661Z,506.00
2023-05-21T11:11:00.777Z,505.00
2023-05-21T11:12:00.768Z,508.00
2023-05-21T11:13:00.772Z,507.00
2023-05-21T11:14:00.790Z,505.00
2023-05-21T11:15:00.806Z,506.00
2023-05-21T11:16:00.865Z,507.00
2023-05-21T11:17:00.970Z,505.00
2023-05-21T11:18:00.901Z,505.00
2023-05-21T11:19:00.962Z,505.00
2023-05-21T11:20:00.924Z,505.00
2023-05-21T11:21:00.956Z,508.00
2023-05-21T11:22:01.023Z,505.00
2023-05-21T11:23:01.064Z,507.00
2023-05-21T11:24:01.030Z,502.00
2023-05-21T11:25:01.181Z,504.00
2023-05-21T11:26:01.024Z,513.00
2023-05-21T11:27:01.094Z,508.00
2023-05-21T11:28:01.138Z,509.00
2023-05-21T11:29:01.087Z,507.00
2023-05-21T11:30:01.113Z,510.00
2023-05-21T11:31:01.130Z,506.00
2023-05-21T11:32:01.132Z,504.00
2023-05-21T11:33:01.517Z,512.00
2023-05-21T11:34:01.156Z,510.00
2023-05-21T11:35:01.182Z,510.00
2023-05-21T11:36:01.150Z,511.00
2023-05-21T11:37:01.172Z,507.00
2023-05-21T11:38:01.192Z,510.00
2023-05-21T11:39:01.225Z,508.00
2023-05-21T11:40:01.277Z,509.00
2023-05-21T11:41:01.270Z,506.00
2023-05-21T11:42:04.039Z,507.00
2023-05-21T11:43:01.295Z,512.00
2023-05-21T11:44:01.316Z,514.00
2023-05-21T11:45:01.263Z,512.00
2023-05-21T11:46:01.233Z,500.00
2023-05-21T11:47:01.396Z,509.00
2023-05-21T11:48:01.281Z,510.00
2023-05-21T11:49:01.239Z,509.00
2023-05-21T11:50:01.296Z,509.00
2023-05-21T11:51:01.229Z,516.00
2023-05-21T11:52:01.259Z,509.00
2023-05-21T11:53:01.228Z,510.00
2023-05-21T11:54:01.201Z,512.00
2023-05-21T11:55:01.196Z,510.00
2023-05-21T11:56:01.218Z,513.00
2023-05-21T11:57:01.201Z,507.00
2023-05-21T11:58:01.198Z,506.00
2023-05-21T11:59:01.167Z,505.00
2023-05-21T12:00:01.204Z,515.00
2023-05-21T12:01:01.169Z,510.00
2023-05-21T12:02:01.143Z,511.00
2023-05-21T12:03:01.261Z,508.00
2023-05-21T12:04:01.213Z,507.00
2023-05-21T12:05:01.144Z,500.00
2023-05-21T12:06:01.463Z,505.00
2023-05-21T12:07:01.112Z,502.00
2023-05-21T12:08:01.126Z,503.00
2023-05-21T12:09:01.126Z,510.00
2023-05-21T12:10:01.180Z,505.00
2023-05-21T12:11:01.102Z,505.00
2023-05-21T12:12:01.080Z,509.00
2023-05-21T12:13:01.092Z,501.00
2023-05-21T12:14:01.145Z,511.00
2023-05-21T12:15:01.127Z,509.00
2023-05-21T12:16:01.083Z,507.00
2023-05-21T12:17:01.118Z,504.00
2023-05-21T12:18:01.208Z,511.00
2023-05-21T12:19:01.139Z,501.00
2023-05-21T12:20:01.052Z,506.00
2023-05-21T12:21:01.086Z,504.00
2023-05-21T12:22:01.068Z,512.00
2023-05-21T12:23:01.089Z,507.00
2023-05-21T12:24:01.040Z,512.00
2023-05-21T12:25:01.007Z,503.00
2023-05-21T12:26:01.030Z,506.00
2023-05-21T12:27:00.973Z,508.00
2023-05-21T12:28:00.990Z,507.00
2023-05-21T12:29:00.961Z,503.00
2023-05-21T12:30:00.970Z,507.00